Airfield :







YOU CAN JOIN US ON...

 
LOGIN :

Register | Disclaimer

   EN    FR    IT 

 









Legend :    VFR   Marginal VFR   IFR   Intensive IFR   Very Intensive IFR
Visi :
Ceiling :
>= 8 km
>= 3000ft
5 to 8 km
1000 to 3000 ft
1500m to 5 km
500 to 1000 ft
800 to 1500m
200 to 500 ft
< 800m
< 200 ft
Symbols :   Thunderstorms  Fog  Heavy snow  Heavy precipitations  Wind > 20 kt






- Airport Elevation : 76 ft
- IATA code : PWM


KPWM - Portland International Jetport

CURRENT METAR :
  • 170651Z AUTO 01004KT 10SM OVC032 M06/M09 A3007 RMK AO2 SLP183 T10611089

EXPIRED METARs :
  • 170551Z AUTO 02005KT 10SM OVC038 M07/M09 A3011 RMK AO2 SLP198 T10671094 11067 21094 58035
  • 170451Z 03006KT 10SM BKN038 M07/M09 A3016 RMK AO2 PRESFR SLP216 LAST T10671094 410561200

TAF KPWM
Valid from the 17 at 06:00 until the 18 at 06:00 UTC


170534Z 1706/1806 06008KT P6SM BKN025 OVC050
FM171000 08012G24KT 3SM -SN BKN015 OVC025 WS020/10045KT
TEMPO 1710/1713 1/4SM +SN OVC007
FM171400 08020G38KT 1SM RA BR BKN007 OVC015 WS020/11065KT
FM171900 18013G20KT 4SM -SHRA SCT007 OVC015
FM180100 22012G20KT 4SM BR BKN020
KZBW FIR / North America



MET'MAP, your aeronautical weather chart ! - Copyright ORBIFLY December 2007 - Disclaimer

ORBIFLY MET'MAP TEAM :

Programming & Development : Alexandra Zaïnal
Concept & original design : Baudouin d'Aumeries
Assistance for programming : Marc-Olivier Méhu
Technical & hardware support : Manuel Goepfert

Contact : metmap@orbifly.com




SOURCES & CREDITS :

   NOAA